This is the latest recevied weather packets stored in our database for station/object 5B4ALR-13. If no packets are shown the sender has not sent any weather packets the latest 10 day(s).
| Time | Temp. | Humidity | Pressure | Rain* | Wind** | Luminosity | Snow |
|---|---|---|---|---|---|---|---|
| 1778333470 | 30° C | 22% | 1015.6 hPa | 0 mm | - | - | - |
| 1778332870 | 29.44° C | 23% | 1015.6 hPa | 0 mm | - | - | - |
| 1778332270 | 30.56° C | 23% | 1015.7 hPa | 0 mm | - | - | - |
| 1778331670 | 30° C | 23% | 1015.7 hPa | 0 mm | - | - | - |
| 1778331070 | 30.56° C | 23% | 1015.8 hPa | 0 mm | - | - | - |
| 1778330470 | 30.56° C | 23% | 1015.7 hPa | 0 mm | - | - | - |
| 1778329870 | 30° C | 24% | 1015.7 hPa | 0 mm | - | - | - |
| 1778329270 | 30.56° C | 22% | 1015.8 hPa | 0 mm | - | - | - |
| 1778328670 | 30.56° C | 22% | 1015.9 hPa | 0 mm | - | - | - |
| 1778328070 | 31.11° C | 22% | 1016.1 hPa | 0 mm | - | - | - |
| 1778327470 | 30.56° C | 22% | 1016.1 hPa | 0 mm | - | - | - |
| 1778326870 | 31.11° C | 22% | 1016.2 hPa | 0 mm | - | - | - |
| 1778326270 | 30.56° C | 21% | 1016.2 hPa | 0 mm | - | - | - |
| 1778325670 | 31.11° C | 22% | 1016.2 hPa | 0 mm | - | - | - |
| 1778325070 | 31.67° C | 21% | 1016.1 hPa | 0 mm | - | - | - |
| 1778324470 | 31.67° C | 22% | 1016.2 hPa | 0 mm | - | - | - |
| 1778323870 | 31.67° C | 21% | 1016.2 hPa | 0 mm | - | - | - |
| 1778323270 | 31.11° C | 22% | 1016.2 hPa | 0 mm | - | - | - |
| 1778322670 | 31.11° C | 21% | 1016.2 hPa | 0 mm | - | - | - |
| 1778322070 | 31.11° C | 22% | 1016.3 hPa | 0 mm | - | - | - |
| 1778321470 | 31.67° C | 21% | 1016.4 hPa | 0 mm | - | - | - |
| 1778320870 | 31.11° C | 22% | 1016.3 hPa | 0 mm | - | - | - |
| 1778320270 | 31.67° C | 22% | 1016.4 hPa | 0 mm | - | - | - |
| 1778319670 | 32.22° C | 22% | 1016.5 hPa | 0 mm | - | - | - |
| 1778319070 | 31.67° C | 22% | 1016.5 hPa | 0 mm | - | - | - |
* Rain latest hour (hover to see other rain measurements)
** Current wind speed in m/s (hover to see current wind gust speed)